Coeur D'Alene - Pappy Boyington Field Coeur d'Alene US
ICAO: KCOE
IATA: COE
Category: Medium
Scheduled Services: No

Elevation: 2320 ft
TransAlt. 18000 ft.

Airport Communications:
SPOKANE APP/DEP:132.1
AWOS 3:135.075
SEATTLE CNTR:123.95
BOISE RDO:122.05
CTAF/UNICOM:122.8

KCOE Zoom In..

Runways:

(A) RW 02 length 5400 ft width 75 ft
---- / hdg 13

(B) RW 06 length 7400 ft width 100 ft
ILS 110.70 / hdg 51

(C) RW 20 length 5400 ft width 75 ft
---- / hdg 193

(D) RW 24 length 7400 ft width 100 ft
---- / hdg 231

Location; KCOE
Day. 22 / Time. 23.56 Zulu
* Altimeter: 30.18
* Temperature: 02° c. 35.6°f.
* Wind from: 210° Speed 09 kn.
Dewpoint: 00° c.
Visibility: 10 Statute Miles.
Clouds: Few 3000 ft.
Clouds: Broken 5500 ft.
Clouds: Overcast 11000 ft.

KCOE 222356Z AUTO 21009KT 10SM FEW030 BKN055 OVC110 02/00 A3018 RMK AO2 SLP258 60001 T00220000 10044 20022 53008 FZRANO


Wind From 210°
Speed 09 kn.

YouTube Music Video
 
jpsmedia.com for Web Design  worldairports.se 2018   terms of use